createdAt,value
2018-09-05T00:00:10.629Z,55.00
2018-09-05T00:02:39.557Z,55.10
2018-09-05T00:05:09.684Z,55.30
2018-09-05T00:07:38.267Z,55.40
2018-09-05T00:10:06.992Z,55.40
2018-09-05T00:12:35.680Z,55.30
2018-09-05T00:15:04.483Z,55.30
2018-09-05T00:17:33.104Z,55.40
2018-09-05T00:20:01.731Z,55.40
2018-09-05T00:22:30.496Z,55.00
2018-09-05T00:24:59.266Z,55.70
2018-09-05T00:27:27.862Z,55.60
2018-09-05T00:29:56.471Z,55.60
2018-09-05T00:32:25.123Z,55.60
2018-09-05T00:34:53.758Z,55.60
2018-09-05T00:37:22.326Z,55.60
2018-09-05T00:39:50.969Z,55.50
2018-09-05T00:42:20.566Z,55.60
2018-09-05T00:44:49.272Z,55.60
2018-09-05T00:47:17.953Z,55.60
2018-09-05T00:49:46.589Z,55.80
2018-09-05T00:52:15.169Z,55.80
2018-09-05T00:54:43.768Z,55.40
2018-09-05T00:57:12.356Z,55.90
2018-09-05T00:59:41.012Z,56.60
2018-09-05T01:02:09.723Z,55.90
2018-09-05T01:04:38.335Z,55.90
2018-09-05T01:07:18.267Z,55.90
2018-09-05T01:09:47.568Z,56.00
2018-09-05T01:12:16.551Z,55.80
2018-09-05T01:14:45.257Z,55.80
2018-09-05T01:17:13.909Z,55.90
2018-09-05T01:19:42.523Z,55.90
2018-09-05T01:22:11.316Z,55.90
2018-09-05T01:24:39.949Z,56.00
2018-09-05T01:27:09.955Z,56.10
2018-09-05T01:29:39.712Z,56.10
2018-09-05T01:32:09.554Z,56.00
2018-09-05T01:34:40.547Z,55.90
2018-09-05T01:37:09.932Z,55.90
2018-09-05T01:39:38.720Z,55.80
2018-09-05T01:42:08.023Z,55.80
2018-09-05T01:44:36.644Z,55.80
2018-09-05T01:47:05.450Z,55.90
2018-09-05T01:49:35.329Z,56.00
2018-09-05T01:52:03.959Z,55.90
2018-09-05T01:54:33.465Z,55.90
2018-09-05T01:57:02.124Z,55.90
2018-09-05T01:59:30.900Z,56.00
2018-09-05T02:01:59.569Z,56.00
2018-09-05T02:04:28.223Z,56.00
2018-09-05T02:06:56.879Z,55.90
2018-09-05T02:09:26.221Z,55.90
2018-09-05T02:11:55.833Z,56.00
2018-09-05T02:14:24.465Z,55.90
2018-09-05T02:16:53.090Z,56.00
2018-09-05T02:19:21.786Z,56.20
2018-09-05T02:21:50.451Z,56.10
2018-09-05T02:24:19.101Z,56.20
2018-09-05T02:26:47.771Z,56.10
2018-09-05T02:29:16.448Z,56.10
2018-09-05T02:31:45.136Z,56.20
2018-09-05T02:34:13.833Z,56.10
2018-09-05T02:36:42.507Z,55.90
2018-09-05T02:39:12.103Z,55.90
2018-09-05T02:41:40.844Z,56.00
2018-09-05T02:44:15.855Z,56.00
2018-09-05T02:46:44.515Z,55.90
2018-09-05T02:49:13.172Z,55.80
2018-09-05T02:51:41.904Z,55.80
2018-09-05T02:54:10.514Z,55.90
2018-09-05T02:56:39.165Z,55.90
2018-09-05T02:59:07.774Z,55.90
2018-09-05T03:01:36.640Z,56.10
2018-09-05T03:04:05.469Z,56.10
2018-09-05T03:06:34.177Z,56.20
2018-09-05T03:09:02.983Z,56.20
2018-09-05T03:11:31.644Z,56.10
2018-09-05T03:14:00.283Z,56.00
2018-09-05T03:16:28.905Z,56.00
2018-09-05T03:18:57.541Z,56.10
2018-09-05T03:21:26.146Z,56.00
2018-09-05T03:23:54.782Z,56.00
2018-09-05T03:26:23.480Z,56.10
2018-09-05T03:28:52.172Z,56.10
2018-09-05T03:31:20.811Z,56.10
2018-09-05T03:33:49.980Z,56.10
2018-09-05T03:36:18.855Z,56.20
2018-09-05T03:38:47.507Z,56.20
2018-09-05T03:41:16.808Z,56.30
2018-09-05T03:43:45.643Z,56.30
2018-09-05T03:46:14.401Z,56.30
2018-09-05T03:48:42.972Z,56.30
2018-09-05T03:51:11.689Z,56.20
2018-09-05T03:53:41.464Z,56.40
2018-09-05T03:56:10.647Z,56.20
2018-09-05T03:58:39.303Z,56.20
2018-09-05T04:01:08.135Z,56.30
2018-09-05T04:03:36.794Z,56.10
2018-09-05T04:06:05.700Z,56.10
2018-09-05T04:08:34.413Z,56.10
2018-09-05T04:11:03.195Z,56.00
2018-09-05T04:13:31.897Z,56.10
2018-09-05T04:16:00.584Z,56.10
2018-09-05T04:18:29.319Z,56.10
2018-09-05T04:20:57.935Z,56.10
2018-09-05T04:23:30.312Z,56.70
2018-09-05T04:25:59.005Z,56.00
2018-09-05T04:28:27.701Z,56.10
2018-09-05T04:30:56.421Z,56.10
2018-09-05T04:33:25.086Z,56.10
2018-09-05T04:35:53.744Z,56.10
2018-09-05T04:38:22.481Z,56.10
2018-09-05T04:40:51.134Z,56.10
2018-09-05T04:43:19.797Z,56.20
2018-09-05T04:45:48.423Z,56.20
2018-09-05T04:48:17.120Z,56.30
2018-09-05T04:50:45.770Z,56.30
2018-09-05T04:53:14.388Z,56.30
2018-09-05T04:55:43.180Z,56.70
2018-09-05T04:58:11.936Z,56.70
2018-09-05T05:00:40.641Z,56.70
2018-09-05T05:03:09.341Z,56.70
2018-09-05T05:05:38.124Z,56.50
2018-09-05T05:08:07.058Z,56.60
2018-09-05T05:10:35.654Z,56.60
2018-09-05T05:13:04.338Z,56.50
2018-09-05T05:15:33.104Z,56.50
2018-09-05T05:18:01.760Z,56.60
2018-09-05T05:20:31.289Z,56.90
2018-09-05T05:22:59.816Z,57.00
2018-09-05T05:25:28.424Z,57.10
2018-09-05T05:27:57.209Z,57.10
2018-09-05T05:30:25.801Z,57.10
2018-09-05T05:32:54.533Z,57.10
2018-09-05T05:35:23.085Z,57.10
2018-09-05T05:37:51.963Z,56.80
2018-09-05T05:40:21.336Z,57.10
2018-09-05T05:42:49.981Z,57.10
2018-09-05T05:45:18.541Z,57.10
2018-09-05T05:47:47.088Z,57.20
2018-09-05T05:50:15.997Z,57.10
2018-09-05T05:52:44.650Z,57.30
2018-09-05T05:55:13.430Z,57.20
2018-09-05T05:57:43.244Z,57.20
2018-09-05T06:00:12.015Z,57.20
2018-09-05T06:02:41.165Z,57.30
2018-09-05T06:05:09.875Z,57.40
2018-09-05T06:07:38.938Z,57.40
2018-09-05T06:10:07.842Z,57.40
2018-09-05T06:12:37.636Z,58.00
2018-09-05T06:15:06.259Z,57.50
2018-09-05T06:17:35.059Z,57.50
2018-09-05T06:20:04.248Z,57.50
2018-09-05T06:22:32.913Z,57.50
2018-09-05T06:25:02.119Z,57.60
2018-09-05T06:27:30.726Z,57.50
2018-09-05T06:30:00.222Z,57.20
2018-09-05T06:32:28.857Z,57.10
2018-09-05T06:34:57.492Z,56.90
2018-09-05T06:37:26.321Z,56.80
2018-09-05T06:39:55.887Z,56.80
2018-09-05T06:42:24.458Z,56.80
2018-09-05T06:44:54.689Z,56.80
2018-09-05T06:47:23.493Z,56.80
2018-09-05T06:49:52.421Z,56.70
2018-09-05T06:52:21.121Z,56.70
2018-09-05T06:54:49.876Z,56.70
2018-09-05T06:57:19.912Z,56.70
2018-09-05T06:59:48.543Z,56.70
2018-09-05T07:02:17.116Z,56.90
2018-09-05T07:04:45.716Z,56.60
2018-09-05T07:07:14.348Z,56.70
2018-09-05T07:09:42.932Z,56.60
2018-09-05T07:12:11.711Z,56.60
2018-09-05T07:14:40.358Z,56.50
2018-09-05T07:17:08.895Z,56.40
2018-09-05T07:19:37.548Z,56.20
2018-09-05T07:22:06.505Z,56.00
2018-09-05T07:24:35.329Z,55.90
2018-09-05T07:27:03.910Z,55.70
2018-09-05T07:29:32.474Z,55.40
2018-09-05T07:32:01.187Z,55.50
2018-09-05T07:34:29.869Z,55.60
2018-09-05T07:36:58.471Z,55.10
2018-09-05T07:39:27.361Z,54.60
2018-09-05T07:41:56.606Z,54.60
2018-09-05T07:44:25.283Z,54.40
2018-09-05T07:46:54.024Z,54.50
2018-09-05T07:49:22.691Z,54.90
2018-09-05T07:51:51.292Z,55.00
2018-09-05T07:54:19.948Z,54.80
2018-09-05T07:56:48.629Z,54.60
2018-09-05T07:59:17.240Z,54.40
2018-09-05T08:01:45.931Z,55.00
2018-09-05T08:04:14.534Z,54.40
2018-09-05T08:06:43.287Z,54.40
2018-09-05T08:09:12.645Z,54.50
2018-09-05T08:11:41.367Z,54.10
2018-09-05T08:14:10.254Z,53.70
2018-09-05T08:16:38.803Z,53.30
2018-09-05T08:19:07.851Z,53.10
2018-09-05T08:21:36.403Z,52.60
2018-09-05T08:24:04.952Z,51.90
2018-09-05T08:26:34.121Z,51.40
2018-09-05T08:29:02.779Z,50.60
2018-09-05T08:31:31.912Z,50.60
2018-09-05T08:34:01.063Z,50.70
2018-09-05T08:36:29.829Z,50.80
2018-09-05T08:38:58.423Z,50.50
2018-09-05T08:41:26.975Z,49.70
2018-09-05T08:43:55.607Z,49.70
2018-09-05T08:46:24.106Z,49.40
2018-09-05T08:48:52.786Z,49.10
2018-09-05T08:51:21.400Z,49.00
2018-09-05T08:53:50.522Z,48.80
2018-09-05T08:56:19.346Z,48.70
2018-09-05T08:58:47.987Z,48.40
2018-09-05T09:01:16.599Z,48.30
2018-09-05T09:03:45.270Z,48.20
2018-09-05T09:06:13.980Z,47.70
2018-09-05T09:08:42.884Z,47.60
2018-09-05T09:11:13.813Z,47.40
2018-09-05T09:13:42.413Z,47.20
2018-09-05T09:16:11.450Z,46.90
2018-09-05T09:18:40.067Z,47.00
2018-09-05T09:21:08.636Z,47.00
2018-09-05T09:23:37.183Z,47.00
2018-09-05T09:26:06.114Z,46.90
2018-09-05T09:28:34.679Z,47.00
2018-09-05T09:31:03.196Z,46.70
2018-09-05T09:33:31.761Z,46.30
2018-09-05T09:36:00.360Z,46.30
2018-09-05T09:38:28.992Z,45.80
2018-09-05T09:40:57.742Z,45.80
2018-09-05T09:43:26.400Z,45.20
2018-09-05T09:45:55.008Z,44.80
2018-09-05T09:48:23.681Z,45.10
2018-09-05T09:50:52.333Z,45.10
2018-09-05T09:53:21.976Z,45.10
2018-09-05T09:55:51.211Z,44.80
2018-09-05T09:58:20.036Z,44.30
2018-09-05T10:00:53.907Z,44.60
2018-09-05T10:03:27.879Z,44.50
2018-09-05T10:06:01.662Z,44.50
2018-09-05T10:08:36.227Z,44.30
2018-09-05T10:11:10.041Z,43.70
2018-09-05T10:13:43.840Z,44.10
2018-09-05T10:16:17.728Z,43.90
2018-09-05T10:18:48.318Z,44.00
2018-09-05T10:21:16.900Z,43.70
2018-09-05T10:23:45.545Z,43.10
2018-09-05T10:26:14.553Z,43.00
2018-09-05T10:28:43.055Z,43.10
2018-09-05T10:31:11.682Z,43.20
2018-09-05T10:33:40.359Z,43.20
2018-09-05T10:36:08.959Z,42.70
2018-09-05T10:38:37.527Z,42.40
2018-09-05T10:41:06.290Z,42.30
2018-09-05T10:43:35.007Z,42.70
2018-09-05T10:46:03.851Z,42.60
2018-09-05T10:48:32.384Z,42.80
2018-09-05T10:51:00.962Z,42.50
2018-09-05T10:53:29.816Z,42.60
2018-09-05T10:55:58.417Z,42.20
2018-09-05T10:58:27.036Z,42.00
2018-09-05T11:00:55.680Z,41.80
2018-09-05T11:03:24.309Z,41.80
2018-09-05T11:05:52.856Z,41.90
2018-09-05T11:08:22.379Z,41.80
2018-09-05T11:10:51.151Z,41.40
2018-09-05T11:13:19.689Z,41.30
2018-09-05T11:15:48.311Z,40.90
2018-09-05T11:18:16.894Z,40.50
2018-09-05T11:20:45.667Z,40.40
2018-09-05T11:23:14.266Z,40.20
2018-09-05T11:25:42.860Z,40.20
2018-09-05T11:28:11.551Z,39.50
2018-09-05T11:30:40.150Z,39.60
2018-09-05T11:33:08.888Z,39.10
2018-09-05T11:35:37.810Z,39.70
2018-09-05T11:38:06.474Z,39.50
2018-09-05T11:40:35.148Z,39.00
2018-09-05T11:43:04.282Z,39.60
2018-09-05T11:45:32.840Z,39.70
2018-09-05T11:48:01.466Z,39.20
2018-09-05T11:50:30.093Z,39.40
2018-09-05T11:52:58.802Z,39.30
2018-09-05T11:55:27.374Z,38.90
2018-09-05T11:57:55.964Z,39.20
2018-09-05T12:00:24.865Z,38.90
2018-09-05T12:02:53.460Z,39.00
2018-09-05T12:05:23.996Z,39.10
2018-09-05T12:07:52.560Z,39.10
2018-09-05T12:10:21.122Z,39.10
2018-09-05T12:12:50.382Z,39.00
2018-09-05T12:15:19.011Z,38.70
2018-09-05T12:17:47.627Z,38.00
2018-09-05T12:20:16.254Z,37.90
2018-09-05T12:22:44.850Z,37.30
2018-09-05T12:25:14.215Z,37.50
2018-09-05T12:27:43.013Z,37.90
2018-09-05T12:30:11.709Z,37.60
2018-09-05T12:32:40.765Z,37.70
2018-09-05T12:35:09.365Z,37.10
2018-09-05T12:37:38.512Z,37.00
2018-09-05T12:40:07.272Z,36.80
2018-09-05T12:42:35.924Z,36.70
2018-09-05T12:45:04.587Z,36.50
2018-09-05T12:47:33.515Z,36.40
2018-09-05T12:50:02.181Z,36.00
2018-09-05T12:52:31.422Z,36.10
2018-09-05T12:55:00.708Z,37.10
2018-09-05T12:57:29.337Z,36.40
2018-09-05T12:59:57.929Z,35.90
2018-09-05T13:02:26.584Z,36.40
2018-09-05T13:04:55.261Z,36.10
2018-09-05T13:07:23.892Z,35.80
2018-09-05T13:09:52.505Z,35.60
2018-09-05T13:12:21.743Z,35.60
2018-09-05T13:14:50.974Z,35.60
2018-09-05T13:17:19.688Z,35.40
2018-09-05T13:19:48.269Z,35.20
2018-09-05T13:22:17.724Z,34.70
2018-09-05T13:24:46.339Z,34.60
2018-09-05T13:27:15.313Z,34.90
2018-09-05T13:32:47.529Z,34.60
2018-09-05T13:35:16.626Z,35.10
2018-09-05T13:37:48.579Z,34.60
2018-09-05T13:40:20.766Z,34.70
2018-09-05T13:42:53.203Z,34.80
2018-09-05T13:45:26.996Z,35.30
2018-09-05T13:47:57.744Z,35.10
2018-09-05T13:50:26.795Z,36.10
2018-09-05T13:52:56.233Z,35.30
2018-09-05T13:55:25.006Z,35.30
2018-09-05T13:57:58.424Z,34.90
2018-09-05T14:00:27.705Z,34.80
2018-09-05T14:02:56.783Z,34.80
2018-09-05T14:05:27.685Z,34.90
2018-09-05T14:07:56.719Z,35.00
2018-09-05T14:10:26.499Z,34.90
2018-09-05T14:12:55.387Z,35.50
2018-09-05T14:15:24.232Z,34.80
2018-09-05T14:17:56.729Z,35.40
2018-09-05T14:20:26.109Z,34.80
2018-09-05T14:22:55.276Z,34.70
2018-09-05T14:25:24.150Z,35.40
2018-09-05T14:27:52.909Z,35.00
2018-09-05T14:30:21.737Z,35.40
2018-09-05T14:32:50.417Z,35.50
2018-09-05T14:35:22.469Z,35.70
2018-09-05T14:37:51.788Z,35.70
2018-09-05T14:40:20.886Z,35.20
2018-09-05T14:42:49.704Z,35.50
2018-09-05T14:45:18.745Z,35.40
2018-09-05T14:47:47.582Z,34.70
2018-09-05T14:50:17.496Z,34.70
2018-09-05T14:52:46.341Z,34.80
2018-09-05T14:55:17.856Z,35.50
2018-09-05T14:57:47.404Z,34.70
2018-09-05T15:00:16.254Z,34.20
2018-09-05T15:02:45.228Z,34.00
2018-09-05T15:05:14.248Z,34.20
2018-09-05T15:07:49.455Z,34.60
2018-09-05T15:10:18.508Z,34.60
2018-09-05T15:12:47.345Z,34.40
2018-09-05T15:15:16.665Z,33.90
2018-09-05T15:17:46.720Z,33.40
2018-09-05T15:20:18.879Z,32.60
2018-09-05T15:22:51.798Z,32.80
2018-09-05T15:25:20.915Z,32.90
2018-09-05T15:27:50.436Z,33.00
2018-09-05T15:30:24.963Z,33.00
2018-09-05T15:32:59.272Z,32.90
2018-09-05T15:35:28.992Z,32.80
2018-09-05T15:37:57.753Z,33.30
2018-09-05T15:40:29.648Z,33.60
2018-09-05T15:42:58.545Z,33.60
2018-09-05T15:45:29.546Z,33.20
2018-09-05T15:48:02.861Z,32.90
2018-09-05T15:50:31.853Z,32.90
2018-09-05T15:53:00.792Z,33.20
2018-09-05T15:55:30.218Z,33.30
2018-09-05T15:58:05.109Z,33.50
2018-09-05T16:00:35.270Z,33.80
2018-09-05T16:03:04.305Z,33.90
2018-09-05T16:05:37.875Z,33.80
2018-09-05T16:08:07.765Z,33.50
2018-09-05T16:10:36.819Z,33.00
2018-09-05T16:13:06.150Z,32.70
2018-09-05T16:15:35.152Z,32.20
2018-09-05T16:18:04.812Z,32.10
2018-09-05T16:20:34.092Z,32.00
2018-09-05T16:23:02.945Z,32.10
2018-09-05T16:25:32.066Z,32.10
2018-09-05T16:28:01.809Z,32.20
2018-09-05T16:30:31.711Z,31.60
2018-09-05T16:33:04.684Z,31.60
2018-09-05T16:35:35.464Z,31.30
2018-09-05T16:38:04.284Z,31.20
2018-09-05T16:40:36.382Z,31.00
2018-09-05T16:43:05.293Z,30.60
2018-09-05T16:45:35.009Z,30.70
2018-09-05T16:48:05.024Z,30.80
2018-09-05T16:50:39.414Z,30.90
2018-09-05T16:53:32.033Z,31.00
2018-09-05T16:56:00.805Z,30.60
2018-09-05T16:58:29.669Z,31.00
2018-09-05T17:01:11.497Z,31.00
2018-09-05T17:03:40.301Z,31.00
2018-09-05T17:06:09.876Z,31.00
2018-09-05T17:08:39.674Z,30.90
2018-09-05T17:11:08.507Z,31.20
2018-09-05T17:13:38.301Z,31.00
2018-09-05T17:16:07.417Z,31.20
2018-09-05T17:18:36.383Z,31.30
2018-09-05T17:21:06.298Z,31.30
2018-09-05T17:23:35.107Z,31.50
2018-09-05T17:26:03.899Z,31.50
2018-09-05T17:28:35.246Z,31.40
2018-09-05T17:31:05.265Z,31.20
2018-09-05T17:33:37.619Z,30.90
2018-09-05T17:36:06.560Z,30.50
2018-09-05T17:38:35.427Z,30.30
2018-09-05T17:41:04.294Z,30.20
2018-09-05T17:43:34.076Z,30.20
2018-09-05T17:46:02.838Z,30.20
2018-09-05T17:48:41.148Z,30.20
2018-09-05T17:51:11.069Z,30.20
2018-09-05T17:53:43.499Z,30.20
2018-09-05T17:56:12.403Z,30.10
2018-09-05T17:58:43.450Z,30.20
2018-09-05T18:01:21.531Z,30.20
2018-09-05T18:04:00.400Z,30.20
2018-09-05T18:06:30.696Z,30.10
2018-09-05T18:09:06.738Z,30.10
2018-09-05T18:11:36.949Z,30.10
2018-09-05T18:14:05.933Z,30.20
2018-09-05T18:16:35.071Z,30.10
2018-09-05T18:19:04.616Z,30.10
2018-09-05T18:21:33.392Z,30.10
2018-09-05T18:24:10.026Z,30.10
2018-09-05T18:26:42.011Z,30.10
2018-09-05T18:29:16.335Z,30.30
2018-09-05T18:31:46.941Z,30.10
2018-09-05T18:34:15.649Z,30.10
2018-09-05T18:36:44.305Z,30.00
2018-09-05T18:39:15.330Z,29.70
2018-09-05T18:41:49.618Z,30.00
2018-09-05T18:44:21.730Z,30.00
2018-09-05T18:47:00.513Z,30.00
2018-09-05T18:49:29.402Z,29.90
2018-09-05T18:51:58.172Z,30.00
2018-09-05T18:54:29.180Z,29.90
2018-09-05T18:56:59.133Z,29.90
2018-09-05T18:59:32.422Z,29.90
2018-09-05T19:02:02.353Z,29.90
2018-09-05T19:04:31.897Z,29.90
2018-09-05T19:07:00.752Z,29.90
2018-09-05T19:09:29.574Z,30.00
2018-09-05T19:11:59.487Z,30.30
2018-09-05T19:14:40.632Z,30.30
2018-09-05T19:17:16.799Z,30.60
2018-09-05T19:19:47.344Z,31.00
2018-09-05T19:22:16.803Z,30.80
2018-09-05T19:24:47.070Z,30.80
2018-09-05T19:27:17.736Z,30.70
2018-09-05T19:29:46.469Z,30.70
2018-09-05T19:32:21.075Z,30.80
2018-09-05T19:34:50.927Z,30.80
2018-09-05T19:37:25.303Z,31.00
2018-09-05T19:39:57.294Z,30.90
2018-09-05T19:42:27.502Z,30.90
2018-09-05T19:45:01.332Z,30.90
2018-09-05T19:47:30.236Z,31.00
2018-09-05T19:50:00.541Z,31.00
2018-09-05T19:52:31.089Z,31.10
2018-09-05T19:55:05.391Z,31.10
2018-09-05T19:57:35.176Z,31.40
2018-09-05T20:00:15.866Z,31.40
2018-09-05T20:02:49.867Z,31.50
2018-09-05T20:05:29.173Z,31.60
2018-09-05T20:08:14.666Z,32.00
2018-09-05T20:10:44.371Z,32.30
2018-09-05T20:13:13.325Z,32.20
2018-09-05T20:15:46.292Z,32.30
2018-09-05T20:18:18.856Z,32.40
2018-09-05T20:20:51.607Z,32.60
2018-09-05T20:23:26.124Z,32.60
2018-09-05T20:25:57.558Z,32.70
2018-09-05T20:28:26.315Z,32.90
2018-09-05T20:30:56.714Z,33.00
2018-09-05T20:33:27.807Z,33.00
2018-09-05T20:36:01.213Z,33.10
2018-09-05T20:38:34.493Z,33.20
2018-09-05T20:41:09.896Z,33.40
2018-09-05T20:43:40.977Z,33.50
2018-09-05T20:46:09.929Z,33.70
2018-09-05T20:48:41.608Z,33.70
2018-09-05T20:51:17.247Z,33.70
2018-09-05T20:53:50.284Z,34.00
2018-09-05T20:56:23.381Z,34.60
2018-09-05T20:58:53.404Z,34.50
2018-09-05T21:01:23.164Z,34.70
2018-09-05T21:03:58.348Z,35.20
2018-09-05T21:06:27.184Z,35.50
2018-09-05T21:08:59.025Z,35.80
2018-09-05T21:11:27.856Z,35.70
2018-09-05T21:13:57.802Z,36.00
2018-09-05T21:16:31.525Z,36.10
2018-09-05T21:19:00.900Z,36.40
2018-09-05T21:21:31.273Z,36.50
2018-09-05T21:24:01.398Z,36.70
2018-09-05T21:26:30.422Z,36.90
2018-09-05T21:29:00.393Z,37.10
2018-09-05T21:31:33.180Z,37.50
2018-09-05T21:34:04.289Z,37.50
2018-09-05T21:36:34.753Z,38.40
2018-09-05T21:39:04.432Z,37.60
2018-09-05T21:41:35.870Z,37.50
2018-09-05T21:44:09.634Z,37.70
2018-09-05T21:46:40.191Z,37.60
2018-09-05T21:49:12.270Z,37.50
2018-09-05T21:51:48.073Z,37.60
2018-09-05T21:54:22.476Z,37.70
2018-09-05T21:56:51.942Z,37.70
2018-09-05T21:59:25.908Z,37.70
2018-09-05T22:02:03.084Z,37.60
2018-09-05T22:04:33.487Z,38.30
2018-09-05T22:07:07.759Z,38.70
2018-09-05T22:09:37.672Z,38.50
2018-09-05T22:12:09.645Z,38.60
2018-09-05T22:14:41.914Z,38.60
2018-09-05T22:17:11.793Z,39.10
2018-09-05T22:19:47.785Z,39.00
2018-09-05T22:22:20.738Z,39.00
2018-09-05T22:24:50.718Z,39.20
2018-09-05T22:27:22.371Z,39.20
2018-09-05T22:29:52.405Z,39.30
2018-09-05T22:32:21.825Z,39.10
2018-09-05T22:34:53.009Z,39.20
2018-09-05T22:37:24.320Z,39.00
2018-09-05T22:39:53.996Z,39.10
2018-09-05T22:42:23.897Z,39.50
2018-09-05T22:45:07.431Z,39.50
2018-09-05T22:47:54.308Z,39.70
2018-09-05T22:51:12.381Z,39.60
2018-09-05T22:56:10.645Z,39.80
2018-09-05T22:58:51.363Z,39.80
2018-09-05T23:01:37.201Z,40.00
2018-09-05T23:04:42.647Z,40.50
2018-09-05T23:07:28.265Z,40.60
2018-09-05T23:10:08.823Z,40.70
2018-09-05T23:12:49.015Z,40.80
2018-09-05T23:15:29.013Z,40.90
2018-09-05T23:18:17.906Z,41.10
2018-09-05T23:21:09.303Z,41.40
2018-09-05T23:23:54.753Z,41.40
2018-09-05T23:26:23.846Z,41.50
2018-09-05T23:28:52.739Z,41.40
2018-09-05T23:31:22.650Z,41.10
2018-09-05T23:33:53.236Z,40.90
2018-09-05T23:36:22.977Z,41.10
2018-09-05T23:38:57.152Z,41.60
2018-09-05T23:41:29.230Z,41.50
2018-09-05T23:44:07.120Z,41.50
2018-09-05T23:46:39.058Z,41.50
2018-09-05T23:49:10.380Z,41.60
2018-09-05T23:51:39.440Z,41.90
2018-09-05T23:54:18.088Z,42.20
2018-09-05T23:56:53.554Z,42.10
2018-09-05T23:59:26.352Z,42.00
